sensor_id;sensor_type;location;lat;lon;timestamp;P1;durP1;ratioP1;P2;durP2;ratioP2
3333;SDS011;1679;50.392;8.008;2023-01-15T00:01:48;0.80;;;0.50;;
3333;SDS011;1679;50.392;8.008;2023-01-15T00:04:14;0.70;;;0.30;;
3333;SDS011;1679;50.392;8.008;2023-01-15T00:06:40;0.80;;;0.40;;
3333;SDS011;1679;50.392;8.008;2023-01-15T00:09:06;1.00;;;0.40;;
3333;SDS011;1679;50.392;8.008;2023-01-15T00:11:40;0.70;;;0.40;;
3333;SDS011;1679;50.392;8.008;2023-01-15T00:14:06;0.60;;;0.40;;
3333;SDS011;1679;50.392;8.008;2023-01-15T00:16:31;1.00;;;0.40;;
3333;SDS011;1679;50.392;8.008;2023-01-15T00:18:58;1.47;;;0.70;;
3333;SDS011;1679;50.392;8.008;2023-01-15T00:21:26;0.80;;;0.40;;
3333;SDS011;1679;50.392;8.008;2023-01-15T00:23:53;0.80;;;0.50;;
3333;SDS011;1679;50.392;8.008;2023-01-15T00:26:38;1.20;;;0.60;;
3333;SDS011;1679;50.392;8.008;2023-01-15T00:29:23;3.80;;;1.10;;
3333;SDS011;1679;50.392;8.008;2023-01-15T00:31:54;1.80;;;1.50;;
3333;SDS011;1679;50.392;8.008;2023-01-15T00:34:22;1.30;;;0.80;;
3333;SDS011;1679;50.392;8.008;2023-01-15T00:36:48;1.40;;;1.30;;
3333;SDS011;1679;50.392;8.008;2023-01-15T00:39:14;0.80;;;0.40;;
3333;SDS011;1679;50.392;8.008;2023-01-15T00:41:40;1.10;;;0.87;;
3333;SDS011;1679;50.392;8.008;2023-01-15T00:44:05;1.43;;;0.40;;
3333;SDS011;1679;50.392;8.008;2023-01-15T00:46:31;0.80;;;0.40;;
3333;SDS011;1679;50.392;8.008;2023-01-15T00:48:56;1.60;;;0.50;;
3333;SDS011;1679;50.392;8.008;2023-01-15T00:51:24;0.70;;;0.40;;
3333;SDS011;1679;50.392;8.008;2023-01-15T00:53:50;0.70;;;0.50;;
3333;SDS011;1679;50.392;8.008;2023-01-15T00:56:16;0.90;;;0.53;;
3333;SDS011;1679;50.392;8.008;2023-01-15T00:58:41;1.67;;;0.70;;
3333;SDS011;1679;50.392;8.008;2023-01-15T01:01:07;0.80;;;0.50;;
3333;SDS011;1679;50.392;8.008;2023-01-15T01:03:34;1.63;;;0.63;;
3333;SDS011;1679;50.392;8.008;2023-01-15T01:06:00;0.70;;;0.40;;
3333;SDS011;1679;50.392;8.008;2023-01-15T01:08:26;0.70;;;0.40;;
3333;SDS011;1679;50.392;8.008;2023-01-15T01:11:02;0.90;;;0.50;;
3333;SDS011;1679;50.392;8.008;2023-01-15T01:13:31;0.70;;;0.40;;
3333;SDS011;1679;50.392;8.008;2023-01-15T01:15:57;0.70;;;0.47;;
3333;SDS011;1679;50.392;8.008;2023-01-15T01:18:22;3.63;;;0.70;;
3333;SDS011;1679;50.392;8.008;2023-01-15T01:20:50;0.80;;;0.50;;
3333;SDS011;1679;50.392;8.008;2023-01-15T01:23:15;0.70;;;0.50;;
3333;SDS011;1679;50.392;8.008;2023-01-15T01:25:41;1.13;;;0.40;;
3333;SDS011;1679;50.392;8.008;2023-01-15T01:28:07;0.80;;;0.50;;
3333;SDS011;1679;50.392;8.008;2023-01-15T01:30:32;0.80;;;0.53;;
3333;SDS011;1679;50.392;8.008;2023-01-15T01:32:58;0.70;;;0.50;;
3333;SDS011;1679;50.392;8.008;2023-01-15T01:35:23;0.80;;;0.50;;
3333;SDS011;1679;50.392;8.008;2023-01-15T01:37:49;0.60;;;0.40;;
3333;SDS011;1679;50.392;8.008;2023-01-15T01:40:16;0.70;;;0.40;;
3333;SDS011;1679;50.392;8.008;2023-01-15T01:42:42;0.80;;;0.40;;
3333;SDS011;1679;50.392;8.008;2023-01-15T01:47:56;1.00;;;0.50;;
3333;SDS011;1679;50.392;8.008;2023-01-15T01:50:28;0.70;;;0.40;;
3333;SDS011;1679;50.392;8.008;2023-01-15T01:52:56;0.90;;;0.40;;
3333;SDS011;1679;50.392;8.008;2023-01-15T01:55:27;0.77;;;0.40;;
3333;SDS011;1679;50.392;8.008;2023-01-15T01:57:55;0.70;;;0.43;;
3333;SDS011;1679;50.392;8.008;2023-01-15T02:00:24;0.87;;;0.40;;
3333;SDS011;1679;50.392;8.008;2023-01-15T02:02:50;0.80;;;0.40;;
3333;SDS011;1679;50.392;8.008;2023-01-15T02:05:31;0.70;;;0.40;;
3333;SDS011;1679;50.392;8.008;2023-01-15T02:07:59;1.07;;;0.33;;
3333;SDS011;1679;50.392;8.008;2023-01-15T02:10:25;1.43;;;0.40;;
3333;SDS011;1679;50.392;8.008;2023-01-15T02:13:03;1.00;;;0.50;;
3333;SDS011;1679;50.392;8.008;2023-01-15T02:15:36;0.70;;;0.40;;
3333;SDS011;1679;50.392;8.008;2023-01-15T02:20:47;0.60;;;0.40;;
3333;SDS011;1679;50.392;8.008;2023-01-15T02:26:25;1.30;;;0.30;;
3333;SDS011;1679;50.392;8.008;2023-01-15T02:29:14;0.60;;;0.30;;
3333;SDS011;1679;50.392;8.008;2023-01-15T02:31:49;1.10;;;0.40;;
3333;SDS011;1679;50.392;8.008;2023-01-15T02:34:19;0.70;;;0.40;;
3333;SDS011;1679;50.392;8.008;2023-01-15T02:36:56;0.70;;;0.40;;
3333;SDS011;1679;50.392;8.008;2023-01-15T02:39:26;0.60;;;0.30;;
3333;SDS011;1679;50.392;8.008;2023-01-15T02:41:54;0.70;;;0.30;;
3333;SDS011;1679;50.392;8.008;2023-01-15T02:44:25;1.20;;;0.40;;
3333;SDS011;1679;50.392;8.008;2023-01-15T02:46:53;2.17;;;0.30;;
3333;SDS011;1679;50.392;8.008;2023-01-15T02:49:20;0.80;;;0.40;;
3333;SDS011;1679;50.392;8.008;2023-01-15T02:51:51;0.80;;;0.40;;
3333;SDS011;1679;50.392;8.008;2023-01-15T02:54:22;1.20;;;0.40;;
3333;SDS011;1679;50.392;8.008;2023-01-15T02:56:51;0.60;;;0.30;;
3333;SDS011;1679;50.392;8.008;2023-01-15T02:59:20;0.70;;;0.30;;
3333;SDS011;1679;50.392;8.008;2023-01-15T03:01:58;1.00;;;0.30;;
3333;SDS011;1679;50.392;8.008;2023-01-15T03:06:54;1.03;;;0.90;;
3333;SDS011;1679;50.392;8.008;2023-01-15T03:09:20;1.83;;;0.40;;
3333;SDS011;1679;50.392;8.008;2023-01-15T03:11:48;0.83;;;0.40;;
3333;SDS011;1679;50.392;8.008;2023-01-15T03:15:09;1.17;;;0.60;;
3333;SDS011;1679;50.392;8.008;2023-01-15T03:17:57;0.80;;;0.40;;
3333;SDS011;1679;50.392;8.008;2023-01-15T03:20:25;3.47;;;0.70;;
3333;SDS011;1679;50.392;8.008;2023-01-15T03:22:55;0.80;;;0.50;;
3333;SDS011;1679;50.392;8.008;2023-01-15T03:25:28;1.13;;;0.40;;
3333;SDS011;1679;50.392;8.008;2023-01-15T03:27:58;0.80;;;0.47;;
3333;SDS011;1679;50.392;8.008;2023-01-15T03:30:26;0.90;;;0.30;;
3333;SDS011;1679;50.392;8.008;2023-01-15T03:32:52;0.70;;;0.47;;
3333;SDS011;1679;50.392;8.008;2023-01-15T03:38:32;2.30;;;0.80;;
3333;SDS011;1679;50.392;8.008;2023-01-15T03:43:54;1.03;;;0.37;;
3333;SDS011;1679;50.392;8.008;2023-01-15T03:49:12;0.70;;;0.40;;
3333;SDS011;1679;50.392;8.008;2023-01-15T03:51:58;0.70;;;0.40;;
3333;SDS011;1679;50.392;8.008;2023-01-15T03:54:52;1.37;;;0.47;;
3333;SDS011;1679;50.392;8.008;2023-01-15T03:57:38;1.60;;;0.47;;
3333;SDS011;1679;50.392;8.008;2023-01-15T04:03:00;1.20;;;0.40;;
3333;SDS011;1679;50.392;8.008;2023-01-15T04:05:28;0.70;;;0.40;;
3333;SDS011;1679;50.392;8.008;2023-01-15T04:07:54;3.50;;;0.50;;
3333;SDS011;1679;50.392;8.008;2023-01-15T04:10:21;1.47;;;0.30;;
3333;SDS011;1679;50.392;8.008;2023-01-15T04:12:47;1.27;;;0.30;;
3333;SDS011;1679;50.392;8.008;2023-01-15T04:15:13;0.87;;;0.50;;
3333;SDS011;1679;50.392;8.008;2023-01-15T04:17:39;0.77;;;0.40;;
3333;SDS011;1679;50.392;8.008;2023-01-15T04:20:05;0.70;;;0.40;;
3333;SDS011;1679;50.392;8.008;2023-01-15T04:22:31;1.63;;;0.40;;
3333;SDS011;1679;50.392;8.008;2023-01-15T04:24:57;1.90;;;0.50;;
3333;SDS011;1679;50.392;8.008;2023-01-15T04:27:22;1.57;;;0.50;;
3333;SDS011;1679;50.392;8.008;2023-01-15T04:29:48;0.73;;;0.57;;
3333;SDS011;1679;50.392;8.008;2023-01-15T04:32:13;0.90;;;0.40;;
3333;SDS011;1679;50.392;8.008;2023-01-15T04:34:40;0.70;;;0.40;;
3333;SDS011;1679;50.392;8.008;2023-01-15T04:37:06;0.70;;;0.30;;
3333;SDS011;1679;50.392;8.008;2023-01-15T04:39:32;1.60;;;0.50;;
3333;SDS011;1679;50.392;8.008;2023-01-15T04:41:57;0.80;;;0.30;;
3333;SDS011;1679;50.392;8.008;2023-01-15T04:44:42;1.03;;;0.47;;
3333;SDS011;1679;50.392;8.008;2023-01-15T04:47:07;1.33;;;0.40;;
3333;SDS011;1679;50.392;8.008;2023-01-15T04:49:33;2.70;;;0.40;;
3333;SDS011;1679;50.392;8.008;2023-01-15T04:51:59;5.90;;;0.50;;
3333;SDS011;1679;50.392;8.008;2023-01-15T04:54:24;2.07;;;0.40;;
3333;SDS011;1679;50.392;8.008;2023-01-15T04:56:51;0.90;;;0.40;;
3333;SDS011;1679;50.392;8.008;2023-01-15T04:59:20;1.00;;;0.60;;
3333;SDS011;1679;50.392;8.008;2023-01-15T05:01:47;0.60;;;0.40;;
3333;SDS011;1679;50.392;8.008;2023-01-15T05:04:13;0.60;;;0.30;;
3333;SDS011;1679;50.392;8.008;2023-01-15T05:06:38;2.20;;;0.50;;
3333;SDS011;1679;50.392;8.008;2023-01-15T05:09:04;1.10;;;0.40;;
3333;SDS011;1679;50.392;8.008;2023-01-15T05:11:30;4.00;;;0.60;;
3333;SDS011;1679;50.392;8.008;2023-01-15T05:13:58;1.70;;;0.50;;
3333;SDS011;1679;50.392;8.008;2023-01-15T05:16:25;1.30;;;0.50;;
3333;SDS011;1679;50.392;8.008;2023-01-15T05:18:53;0.80;;;0.40;;
3333;SDS011;1679;50.392;8.008;2023-01-15T05:21:22;1.73;;;0.50;;
3333;SDS011;1679;50.392;8.008;2023-01-15T05:23:54;0.60;;;0.37;;
3333;SDS011;1679;50.392;8.008;2023-01-15T05:26:21;1.43;;;0.60;;
3333;SDS011;1679;50.392;8.008;2023-01-15T05:28:48;1.80;;;0.70;;
3333;SDS011;1679;50.392;8.008;2023-01-15T05:31:15;1.00;;;0.50;;
3333;SDS011;1679;50.392;8.008;2023-01-15T05:33:42;0.90;;;0.70;;
3333;SDS011;1679;50.392;8.008;2023-01-15T05:36:09;1.10;;;0.60;;
3333;SDS011;1679;50.392;8.008;2023-01-15T05:38:36;1.30;;;0.70;;
3333;SDS011;1679;50.392;8.008;2023-01-15T05:41:03;2.20;;;0.70;;
3333;SDS011;1679;50.392;8.008;2023-01-15T05:43:49;1.10;;;0.90;;
3333;SDS011;1679;50.392;8.008;2023-01-15T05:46:15;0.70;;;0.50;;
3333;SDS011;1679;50.392;8.008;2023-01-15T05:48:40;1.20;;;0.60;;
3333;SDS011;1679;50.392;8.008;2023-01-15T05:51:06;1.40;;;0.50;;
3333;SDS011;1679;50.392;8.008;2023-01-15T05:53:31;3.20;;;0.40;;
3333;SDS011;1679;50.392;8.008;2023-01-15T05:56:01;1.80;;;0.70;;
3333;SDS011;1679;50.392;8.008;2023-01-15T05:58:27;1.90;;;0.50;;
3333;SDS011;1679;50.392;8.008;2023-01-15T06:00:53;0.90;;;0.50;;
3333;SDS011;1679;50.392;8.008;2023-01-15T06:03:20;3.10;;;0.63;;
3333;SDS011;1679;50.392;8.008;2023-01-15T06:05:53;1.67;;;0.40;;
3333;SDS011;1679;50.392;8.008;2023-01-15T06:08:19;4.77;;;0.60;;
3333;SDS011;1679;50.392;8.008;2023-01-15T06:10:46;2.60;;;0.40;;
3333;SDS011;1679;50.392;8.008;2023-01-15T06:13:13;1.30;;;0.47;;
3333;SDS011;1679;50.392;8.008;2023-01-15T06:15:39;0.93;;;0.50;;
3333;SDS011;1679;50.392;8.008;2023-01-15T06:18:05;2.07;;;1.00;;
3333;SDS011;1679;50.392;8.008;2023-01-15T06:20:31;0.90;;;0.60;;
3333;SDS011;1679;50.392;8.008;2023-01-15T06:22:59;2.17;;;2.07;;
3333;SDS011;1679;50.392;8.008;2023-01-15T06:25:24;1.10;;;0.80;;
3333;SDS011;1679;50.392;8.008;2023-01-15T06:27:50;1.10;;;0.77;;
3333;SDS011;1679;50.392;8.008;2023-01-15T06:30:16;1.07;;;0.67;;
3333;SDS011;1679;50.392;8.008;2023-01-15T06:32:41;1.37;;;0.50;;
3333;SDS011;1679;50.392;8.008;2023-01-15T06:35:07;0.83;;;0.53;;
3333;SDS011;1679;50.392;8.008;2023-01-15T06:37:33;1.07;;;0.50;;
3333;SDS011;1679;50.392;8.008;2023-01-15T06:39:59;1.57;;;0.57;;
3333;SDS011;1679;50.392;8.008;2023-01-15T06:42:24;1.67;;;0.60;;
3333;SDS011;1679;50.392;8.008;2023-01-15T06:45:09;0.90;;;0.40;;
3333;SDS011;1679;50.392;8.008;2023-01-15T06:47:54;1.23;;;0.40;;
3333;SDS011;1679;50.392;8.008;2023-01-15T06:50:21;0.70;;;0.30;;
3333;SDS011;1679;50.392;8.008;2023-01-15T06:52:47;1.00;;;0.47;;
3333;SDS011;1679;50.392;8.008;2023-01-15T06:55:12;2.43;;;0.40;;
3333;SDS011;1679;50.392;8.008;2023-01-15T06:57:38;1.33;;;0.40;;
3333;SDS011;1679;50.392;8.008;2023-01-15T07:00:05;2.93;;;0.40;;
3333;SDS011;1679;50.392;8.008;2023-01-15T07:02:32;0.70;;;0.40;;
3333;SDS011;1679;50.392;8.008;2023-01-15T07:04:57;2.00;;;0.40;;
3333;SDS011;1679;50.392;8.008;2023-01-15T07:07:23;1.73;;;0.43;;
3333;SDS011;1679;50.392;8.008;2023-01-15T07:09:48;0.60;;;0.30;;
3333;SDS011;1679;50.392;8.008;2023-01-15T07:12:15;3.60;;;0.40;;
3333;SDS011;1679;50.392;8.008;2023-01-15T07:14:41;0.60;;;0.30;;
3333;SDS011;1679;50.392;8.008;2023-01-15T07:17:07;0.80;;;0.30;;
3333;SDS011;1679;50.392;8.008;2023-01-15T07:19:33;1.10;;;0.33;;
3333;SDS011;1679;50.392;8.008;2023-01-15T07:21:58;1.00;;;0.40;;
3333;SDS011;1679;50.392;8.008;2023-01-15T07:24:24;0.70;;;0.47;;
3333;SDS011;1679;50.392;8.008;2023-01-15T07:26:49;0.70;;;0.40;;
3333;SDS011;1679;50.392;8.008;2023-01-15T07:29:15;0.80;;;0.50;;
3333;SDS011;1679;50.392;8.008;2023-01-15T07:31:40;0.90;;;0.50;;
3333;SDS011;1679;50.392;8.008;2023-01-15T07:34:06;0.70;;;0.50;;
3333;SDS011;1679;50.392;8.008;2023-01-15T07:36:32;0.80;;;0.40;;
3333;SDS011;1679;50.392;8.008;2023-01-15T07:38:57;1.13;;;0.60;;
3333;SDS011;1679;50.392;8.008;2023-01-15T07:41:23;0.70;;;0.30;;
3333;SDS011;1679;50.392;8.008;2023-01-15T07:44:24;1.57;;;0.37;;
3333;SDS011;1679;50.392;8.008;2023-01-15T07:47:13;1.47;;;0.40;;
3333;SDS011;1679;50.392;8.008;2023-01-15T07:50:07;0.70;;;0.37;;
3333;SDS011;1679;50.392;8.008;2023-01-15T07:52:34;1.20;;;0.30;;
3333;SDS011;1679;50.392;8.008;2023-01-15T07:54:59;0.60;;;0.30;;
3333;SDS011;1679;50.392;8.008;2023-01-15T07:57:26;1.00;;;0.40;;
3333;SDS011;1679;50.392;8.008;2023-01-15T07:59:51;0.70;;;0.40;;
3333;SDS011;1679;50.392;8.008;2023-01-15T08:02:17;0.80;;;0.50;;
3333;SDS011;1679;50.392;8.008;2023-01-15T08:04:43;0.70;;;0.40;;
3333;SDS011;1679;50.392;8.008;2023-01-15T08:07:09;0.73;;;0.50;;
3333;SDS011;1679;50.392;8.008;2023-01-15T08:09:36;1.83;;;1.10;;
3333;SDS011;1679;50.392;8.008;2023-01-15T08:12:02;0.80;;;0.50;;
3333;SDS011;1679;50.392;8.008;2023-01-15T08:14:46;0.90;;;0.40;;
3333;SDS011;1679;50.392;8.008;2023-01-15T08:17:37;1.20;;;0.50;;
3333;SDS011;1679;50.392;8.008;2023-01-15T08:20:04;0.90;;;0.50;;
3333;SDS011;1679;50.392;8.008;2023-01-15T08:22:32;0.70;;;0.40;;
3333;SDS011;1679;50.392;8.008;2023-01-15T08:24:58;0.80;;;0.53;;
3333;SDS011;1679;50.392;8.008;2023-01-15T08:27:24;0.70;;;0.40;;
3333;SDS011;1679;50.392;8.008;2023-01-15T08:29:49;0.90;;;0.80;;
3333;SDS011;1679;50.392;8.008;2023-01-15T08:32:15;0.80;;;0.70;;
3333;SDS011;1679;50.392;8.008;2023-01-15T08:34:40;1.63;;;0.50;;
3333;SDS011;1679;50.392;8.008;2023-01-15T08:37:06;0.90;;;0.50;;
3333;SDS011;1679;50.392;8.008;2023-01-15T08:39:32;0.80;;;0.40;;
3333;SDS011;1679;50.392;8.008;2023-01-15T08:41:58;1.63;;;0.53;;
3333;SDS011;1679;50.392;8.008;2023-01-15T08:44:23;0.70;;;0.50;;
3333;SDS011;1679;50.392;8.008;2023-01-15T08:46:49;1.03;;;0.63;;
3333;SDS011;1679;50.392;8.008;2023-01-15T08:49:15;0.77;;;0.50;;
3333;SDS011;1679;50.392;8.008;2023-01-15T08:51:43;1.53;;;0.60;;
3333;SDS011;1679;50.392;8.008;2023-01-15T08:54:09;3.43;;;1.27;;
3333;SDS011;1679;50.392;8.008;2023-01-15T08:56:36;0.97;;;0.50;;
3333;SDS011;1679;50.392;8.008;2023-01-15T08:59:05;0.70;;;0.40;;
3333;SDS011;1679;50.392;8.008;2023-01-15T09:01:32;1.17;;;0.60;;
3333;SDS011;1679;50.392;8.008;2023-01-15T09:03:58;3.03;;;0.60;;
3333;SDS011;1679;50.392;8.008;2023-01-15T09:06:24;0.60;;;0.40;;
3333;SDS011;1679;50.392;8.008;2023-01-15T09:08:49;0.63;;;0.30;;
3333;SDS011;1679;50.392;8.008;2023-01-15T09:11:15;1.00;;;0.47;;
3333;SDS011;1679;50.392;8.008;2023-01-15T09:13:40;10.40;;;8.30;;
3333;SDS011;1679;50.392;8.008;2023-01-15T09:16:06;51.43;;;31.70;;
3333;SDS011;1679;50.392;8.008;2023-01-15T09:18:33;9.87;;;7.37;;
3333;SDS011;1679;50.392;8.008;2023-01-15T09:21:01;11.40;;;9.20;;
3333;SDS011;1679;50.392;8.008;2023-01-15T09:23:27;20.70;;;15.97;;
3333;SDS011;1679;50.392;8.008;2023-01-15T09:25:57;40.03;;;25.50;;
3333;SDS011;1679;50.392;8.008;2023-01-15T09:28:24;22.40;;;12.30;;
3333;SDS011;1679;50.392;8.008;2023-01-15T09:30:51;34.60;;;20.00;;
3333;SDS011;1679;50.392;8.008;2023-01-15T09:33:16;16.37;;;9.53;;
3333;SDS011;1679;50.392;8.008;2023-01-15T09:35:42;2.87;;;2.00;;
3333;SDS011;1679;50.392;8.008;2023-01-15T09:38:12;3.00;;;1.60;;
3333;SDS011;1679;50.392;8.008;2023-01-15T09:40:54;2.23;;;1.63;;
3333;SDS011;1679;50.392;8.008;2023-01-15T09:43:26;3.30;;;3.10;;
3333;SDS011;1679;50.392;8.008;2023-01-15T09:46:25;1.20;;;1.10;;
3333;SDS011;1679;50.392;8.008;2023-01-15T09:49:19;2.60;;;2.50;;
3333;SDS011;1679;50.392;8.008;2023-01-15T09:54:48;1.73;;;1.63;;
3333;SDS011;1679;50.392;8.008;2023-01-15T09:57:21;2.23;;;2.13;;
3333;SDS011;1679;50.392;8.008;2023-01-15T09:59:49;2.93;;;0.60;;
3333;SDS011;1679;50.392;8.008;2023-01-15T10:02:19;1.33;;;0.77;;
3333;SDS011;1679;50.392;8.008;2023-01-15T10:04:53;1.50;;;1.40;;
3333;SDS011;1679;50.392;8.008;2023-01-15T10:07:49;1.10;;;0.63;;
3333;SDS011;1679;50.392;8.008;2023-01-15T10:10:19;1.00;;;0.30;;
3333;SDS011;1679;50.392;8.008;2023-01-15T10:12:49;1.20;;;0.97;;
3333;SDS011;1679;50.392;8.008;2023-01-15T10:15:34;2.03;;;0.87;;
3333;SDS011;1679;50.392;8.008;2023-01-15T10:18:04;2.60;;;0.80;;
3333;SDS011;1679;50.392;8.008;2023-01-15T10:23:43;1.27;;;0.90;;
3333;SDS011;1679;50.392;8.008;2023-01-15T10:26:35;1.77;;;1.03;;
3333;SDS011;1679;50.392;8.008;2023-01-15T10:31:52;2.87;;;1.80;;
3333;SDS011;1679;50.392;8.008;2023-01-15T10:37:36;2.27;;;0.73;;
3333;SDS011;1679;50.392;8.008;2023-01-15T10:42:54;3.20;;;0.80;;
3333;SDS011;1679;50.392;8.008;2023-01-15T10:45:30;1.47;;;0.50;;
3333;SDS011;1679;50.392;8.008;2023-01-15T10:48:03;1.60;;;0.90;;
3333;SDS011;1679;50.392;8.008;2023-01-15T10:50:46;2.10;;;0.80;;
3333;SDS011;1679;50.392;8.008;2023-01-15T10:53:20;2.40;;;0.80;;
3333;SDS011;1679;50.392;8.008;2023-01-15T10:56:10;1.53;;;1.00;;
3333;SDS011;1679;50.392;8.008;2023-01-15T10:58:44;1.90;;;0.63;;
3333;SDS011;1679;50.392;8.008;2023-01-15T11:01:15;1.20;;;1.00;;
3333;SDS011;1679;50.392;8.008;2023-01-15T11:03:43;2.17;;;0.70;;
3333;SDS011;1679;50.392;8.008;2023-01-15T11:06:13;1.50;;;0.50;;
3333;SDS011;1679;50.392;8.008;2023-01-15T11:08:42;3.23;;;0.70;;
3333;SDS011;1679;50.392;8.008;2023-01-15T11:11:23;4.30;;;0.83;;
3333;SDS011;1679;50.392;8.008;2023-01-15T11:17:34;1.77;;;1.00;;
3333;SDS011;1679;50.392;8.008;2023-01-15T11:20:28;1.53;;;1.20;;
3333;SDS011;1679;50.392;8.008;2023-01-15T11:23:10;1.20;;;1.10;;
3333;SDS011;1679;50.392;8.008;2023-01-15T11:25:39;13.13;;;7.60;;
3333;SDS011;1679;50.392;8.008;2023-01-15T11:31:04;29.97;;;14.37;;
3333;SDS011;1679;50.392;8.008;2023-01-15T11:33:30;11.73;;;8.00;;
3333;SDS011;1679;50.392;8.008;2023-01-15T11:35:57;25.60;;;13.80;;
3333;SDS011;1679;50.392;8.008;2023-01-15T11:38:25;21.20;;;11.30;;
3333;SDS011;1679;50.392;8.008;2023-01-15T11:41:18;16.23;;;9.23;;
3333;SDS011;1679;50.392;8.008;2023-01-15T11:43:51;39.63;;;21.37;;
3333;SDS011;1679;50.392;8.008;2023-01-15T11:46:40;3.23;;;2.03;;
3333;SDS011;1679;50.392;8.008;2023-01-15T11:49:24;12.40;;;4.50;;
3333;SDS011;1679;50.392;8.008;2023-01-15T11:52:12;55.57;;;29.63;;
3333;SDS011;1679;50.392;8.008;2023-01-15T11:54:42;44.03;;;21.20;;
3333;SDS011;1679;50.392;8.008;2023-01-15T11:57:11;44.10;;;20.70;;
3333;SDS011;1679;50.392;8.008;2023-01-15T11:59:49;107.40;;;51.20;;
3333;SDS011;1679;50.392;8.008;2023-01-15T12:04:57;77.50;;;39.70;;
3333;SDS011;1679;50.392;8.008;2023-01-15T12:07:25;24.83;;;14.53;;
3333;SDS011;1679;50.392;8.008;2023-01-15T12:12:53;35.97;;;25.53;;
3333;SDS011;1679;50.392;8.008;2023-01-15T12:18:07;4.27;;;1.30;;
3333;SDS011;1679;50.392;8.008;2023-01-15T12:21:09;4.30;;;4.00;;
3333;SDS011;1679;50.392;8.008;2023-01-15T12:23:45;1.00;;;0.80;;
3333;SDS011;1679;50.392;8.008;2023-01-15T12:29:53;2.50;;;1.40;;
3333;SDS011;1679;50.392;8.008;2023-01-15T12:32:30;2.00;;;1.30;;
3333;SDS011;1679;50.392;8.008;2023-01-15T12:35:14;5.23;;;2.93;;
3333;SDS011;1679;50.392;8.008;2023-01-15T12:37:50;2.80;;;0.90;;
3333;SDS011;1679;50.392;8.008;2023-01-15T12:40:27;3.23;;;0.90;;
3333;SDS011;1679;50.392;8.008;2023-01-15T12:43:02;1.10;;;1.00;;
3333;SDS011;1679;50.392;8.008;2023-01-15T12:45:48;2.00;;;1.60;;
3333;SDS011;1679;50.392;8.008;2023-01-15T12:51:08;2.07;;;0.93;;
3333;SDS011;1679;50.392;8.008;2023-01-15T12:58:59;3.30;;;0.77;;
3333;SDS011;1679;50.392;8.008;2023-01-15T13:01:55;4.10;;;0.80;;
3333;SDS011;1679;50.392;8.008;2023-01-15T13:04:38;1.77;;;1.03;;
3333;SDS011;1679;50.392;8.008;2023-01-15T13:12:34;2.53;;;0.83;;
3333;SDS011;1679;50.392;8.008;2023-01-15T13:15:00;0.80;;;0.50;;
3333;SDS011;1679;50.392;8.008;2023-01-15T13:17:45;0.90;;;0.60;;
3333;SDS011;1679;50.392;8.008;2023-01-15T13:34:00;6.27;;;0.90;;
3333;SDS011;1679;50.392;8.008;2023-01-15T13:36:38;2.57;;;1.10;;
3333;SDS011;1679;50.392;8.008;2023-01-15T13:39:10;2.70;;;0.97;;
3333;SDS011;1679;50.392;8.008;2023-01-15T13:41:42;3.20;;;0.80;;
3333;SDS011;1679;50.392;8.008;2023-01-15T13:44:32;2.40;;;0.70;;
3333;SDS011;1679;50.392;8.008;2023-01-15T13:47:06;1.20;;;0.87;;
3333;SDS011;1679;50.392;8.008;2023-01-15T13:49:36;1.20;;;0.60;;
3333;SDS011;1679;50.392;8.008;2023-01-15T13:52:06;2.07;;;0.90;;
3333;SDS011;1679;50.392;8.008;2023-01-15T13:54:43;1.90;;;0.63;;
3333;SDS011;1679;50.392;8.008;2023-01-15T14:00:04;4.40;;;0.80;;
3333;SDS011;1679;50.392;8.008;2023-01-15T14:02:33;4.70;;;0.70;;
3333;SDS011;1679;50.392;8.008;2023-01-15T14:05:11;2.10;;;0.80;;
3333;SDS011;1679;50.392;8.008;2023-01-15T14:07:49;2.83;;;0.83;;
3333;SDS011;1679;50.392;8.008;2023-01-15T14:19:01;7.50;;;1.20;;
3333;SDS011;1679;50.392;8.008;2023-01-15T14:21:58;1.67;;;0.57;;
3333;SDS011;1679;50.392;8.008;2023-01-15T14:25:02;1.70;;;0.60;;
3333;SDS011;1679;50.392;8.008;2023-01-15T14:27:52;6.20;;;1.37;;
3333;SDS011;1679;50.392;8.008;2023-01-15T14:31:13;2.70;;;0.80;;
3333;SDS011;1679;50.392;8.008;2023-01-15T14:33:46;1.53;;;0.50;;
3333;SDS011;1679;50.392;8.008;2023-01-15T14:36:19;2.63;;;0.70;;
3333;SDS011;1679;50.392;8.008;2023-01-15T14:38:51;3.30;;;1.60;;
3333;SDS011;1679;50.392;8.008;2023-01-15T14:41:31;7.50;;;2.93;;
3333;SDS011;1679;50.392;8.008;2023-01-15T14:44:28;4.47;;;2.30;;
3333;SDS011;1679;50.392;8.008;2023-01-15T14:46:57;5.97;;;4.20;;
3333;SDS011;1679;50.392;8.008;2023-01-15T14:49:30;7.47;;;3.70;;
3333;SDS011;1679;50.392;8.008;2023-01-15T14:52:06;15.03;;;8.10;;
3333;SDS011;1679;50.392;8.008;2023-01-15T14:54:32;12.43;;;5.87;;
3333;SDS011;1679;50.392;8.008;2023-01-15T14:56:58;5.70;;;2.87;;
3333;SDS011;1679;50.392;8.008;2023-01-15T14:59:27;3.27;;;1.60;;
3333;SDS011;1679;50.392;8.008;2023-01-15T15:04:55;7.90;;;4.40;;
3333;SDS011;1679;50.392;8.008;2023-01-15T15:07:23;5.90;;;2.90;;
3333;SDS011;1679;50.392;8.008;2023-01-15T15:15:18;7.90;;;3.07;;
3333;SDS011;1679;50.392;8.008;2023-01-15T15:18:06;15.27;;;6.93;;
3333;SDS011;1679;50.392;8.008;2023-01-15T15:20:59;8.80;;;4.27;;
3333;SDS011;1679;50.392;8.008;2023-01-15T15:24:04;5.07;;;4.57;;
3333;SDS011;1679;50.392;8.008;2023-01-15T15:26:36;14.07;;;6.93;;
3333;SDS011;1679;50.392;8.008;2023-01-15T15:31:32;4.13;;;1.53;;
3333;SDS011;1679;50.392;8.008;2023-01-15T15:34:01;2.70;;;1.60;;
3333;SDS011;1679;50.392;8.008;2023-01-15T15:36:29;7.53;;;1.70;;
3333;SDS011;1679;50.392;8.008;2023-01-15T15:39:01;10.17;;;5.13;;
3333;SDS011;1679;50.392;8.008;2023-01-15T15:41:32;5.47;;;4.50;;
3333;SDS011;1679;50.392;8.008;2023-01-15T15:44:22;3.27;;;2.57;;
3333;SDS011;1679;50.392;8.008;2023-01-15T15:47:18;2.53;;;2.17;;
3333;SDS011;1679;50.392;8.008;2023-01-15T15:50:04;4.43;;;1.70;;
3333;SDS011;1679;50.392;8.008;2023-01-15T15:52:32;2.33;;;1.50;;
3333;SDS011;1679;50.392;8.008;2023-01-15T15:54:58;3.97;;;3.53;;
3333;SDS011;1679;50.392;8.008;2023-01-15T15:57:25;3.87;;;2.10;;
3333;SDS011;1679;50.392;8.008;2023-01-15T15:59:53;2.07;;;1.50;;
3333;SDS011;1679;50.392;8.008;2023-01-15T16:02:29;4.00;;;1.70;;
3333;SDS011;1679;50.392;8.008;2023-01-15T16:05:01;2.47;;;1.60;;
3333;SDS011;1679;50.392;8.008;2023-01-15T16:07:29;3.13;;;1.30;;
3333;SDS011;1679;50.392;8.008;2023-01-15T16:10:14;5.50;;;1.60;;
3333;SDS011;1679;50.392;8.008;2023-01-15T16:12:53;3.23;;;1.50;;
3333;SDS011;1679;50.392;8.008;2023-01-15T16:15:23;2.97;;;1.30;;
3333;SDS011;1679;50.392;8.008;2023-01-15T16:17:54;5.07;;;1.30;;
3333;SDS011;1679;50.392;8.008;2023-01-15T16:20:21;1.37;;;1.10;;
3333;SDS011;1679;50.392;8.008;2023-01-15T16:22:49;2.03;;;1.67;;
3333;SDS011;1679;50.392;8.008;2023-01-15T16:25:21;2.77;;;1.60;;
3333;SDS011;1679;50.392;8.008;2023-01-15T16:27:51;2.40;;;1.90;;
3333;SDS011;1679;50.392;8.008;2023-01-15T16:30:17;4.50;;;1.20;;
3333;SDS011;1679;50.392;8.008;2023-01-15T16:32:43;1.50;;;0.90;;
3333;SDS011;1679;50.392;8.008;2023-01-15T16:35:17;4.33;;;1.17;;
3333;SDS011;1679;50.392;8.008;2023-01-15T16:37:54;2.93;;;1.20;;
3333;SDS011;1679;50.392;8.008;2023-01-15T16:43:05;22.07;;;10.57;;
3333;SDS011;1679;50.392;8.008;2023-01-15T16:45:39;4.40;;;4.00;;
3333;SDS011;1679;50.392;8.008;2023-01-15T16:48:23;5.23;;;1.80;;
3333;SDS011;1679;50.392;8.008;2023-01-15T16:51:21;2.60;;;1.87;;
3333;SDS011;1679;50.392;8.008;2023-01-15T16:53:47;2.27;;;1.60;;
3333;SDS011;1679;50.392;8.008;2023-01-15T16:56:23;2.50;;;1.80;;
3333;SDS011;1679;50.392;8.008;2023-01-15T16:58:48;4.67;;;3.80;;
3333;SDS011;1679;50.392;8.008;2023-01-15T17:04:02;3.73;;;1.93;;
3333;SDS011;1679;50.392;8.008;2023-01-15T17:06:28;2.60;;;2.40;;
3333;SDS011;1679;50.392;8.008;2023-01-15T17:08:54;3.03;;;1.73;;
3333;SDS011;1679;50.392;8.008;2023-01-15T17:11:25;2.67;;;2.47;;
3333;SDS011;1679;50.392;8.008;2023-01-15T17:14:07;2.97;;;2.50;;
3333;SDS011;1679;50.392;8.008;2023-01-15T17:16:34;4.67;;;2.80;;
3333;SDS011;1679;50.392;8.008;2023-01-15T17:19:00;7.37;;;4.60;;
3333;SDS011;1679;50.392;8.008;2023-01-15T17:21:30;2.30;;;1.83;;
3333;SDS011;1679;50.392;8.008;2023-01-15T17:23:55;3.10;;;2.60;;
3333;SDS011;1679;50.392;8.008;2023-01-15T17:26:24;2.80;;;1.30;;
3333;SDS011;1679;50.392;8.008;2023-01-15T17:28:51;7.37;;;6.57;;
3333;SDS011;1679;50.392;8.008;2023-01-15T17:31:23;5.93;;;4.50;;